createdAt,value
2022-12-19T00:02:04.287Z,-0.50
2022-12-19T00:04:31.408Z,-0.50
2022-12-19T00:07:01.339Z,-0.40
2022-12-19T00:09:28.406Z,-0.40
2022-12-19T00:11:55.522Z,-0.40
2022-12-19T00:14:22.511Z,-0.40
2022-12-19T00:16:49.493Z,-0.40
2022-12-19T00:19:16.556Z,-0.40
2022-12-19T00:21:43.642Z,-0.40
2022-12-19T00:24:20.776Z,-0.40
2022-12-19T00:26:49.062Z,-0.40
2022-12-19T00:29:16.557Z,-0.30
2022-12-19T00:31:44.548Z,-0.30
2022-12-19T00:34:14.668Z,-0.30
2022-12-19T00:37:01.707Z,-0.30
2022-12-19T00:39:47.224Z,-0.30
2022-12-19T00:42:14.206Z,-0.30
2022-12-19T00:44:42.020Z,-0.30
2022-12-19T00:47:09.026Z,-0.20
2022-12-19T00:49:37.924Z,-0.20
2022-12-19T00:52:05.494Z,-0.20
2022-12-19T00:54:32.506Z,-0.20
2022-12-19T00:57:00.237Z,-0.10
2022-12-19T00:59:28.093Z,-0.10
2022-12-19T01:01:57.499Z,-0.10
2022-12-19T01:04:29.159Z,-0.10
2022-12-19T01:06:59.630Z,-0.20
2022-12-19T01:09:40.342Z,-0.20
2022-12-19T01:12:39.035Z,-0.20
2022-12-19T01:15:07.272Z,-0.20
2022-12-19T01:17:44.341Z,-0.10
2022-12-19T01:20:13.419Z,-0.20
2022-12-19T01:22:40.375Z,-0.10
2022-12-19T01:25:20.300Z,-0.10
2022-12-19T01:27:57.401Z,-0.20
2022-12-19T01:30:24.522Z,-0.10
2022-12-19T01:32:51.635Z,-0.10
2022-12-19T01:35:21.612Z,-0.10
2022-12-19T01:37:50.320Z,-0.10
2022-12-19T01:40:17.430Z,-0.10
2022-12-19T01:42:44.463Z,-0.10
2022-12-19T01:45:13.953Z,-0.10
2022-12-19T01:47:53.488Z,-0.10
2022-12-19T01:50:27.307Z,0.00
2022-12-19T01:52:54.571Z,0.00
2022-12-19T01:55:24.495Z,0.00
2022-12-19T01:57:51.597Z,0.00
2022-12-19T02:00:19.301Z,0.00
2022-12-19T02:03:00.543Z,0.10
2022-12-19T02:05:28.646Z,0.10
2022-12-19T02:07:55.716Z,0.00
2022-12-19T02:10:23.148Z,0.10
2022-12-19T02:12:50.414Z,0.10
2022-12-19T02:15:17.963Z,0.10
2022-12-19T02:18:03.810Z,0.10
2022-12-19T02:20:33.985Z,0.10
2022-12-19T02:23:02.610Z,0.10
2022-12-19T02:25:48.008Z,0.10
2022-12-19T02:28:26.978Z,0.10
2022-12-19T02:30:57.242Z,0.10
2022-12-19T02:33:34.434Z,0.10
2022-12-19T02:36:14.475Z,0.00
2022-12-19T02:39:00.104Z,0.00
2022-12-19T02:41:45.549Z,-0.10
2022-12-19T02:44:22.021Z,-0.20
2022-12-19T02:46:50.170Z,-0.20
2022-12-19T02:49:31.473Z,-0.30
2022-12-19T02:52:20.506Z,-0.30
2022-12-19T02:54:52.198Z,-0.30
2022-12-19T02:57:28.348Z,-0.40
2022-12-19T02:59:55.460Z,-0.50
2022-12-19T03:02:33.459Z,-0.50
2022-12-19T03:05:07.405Z,-0.50
2022-12-19T03:07:49.983Z,-0.60
2022-12-19T03:10:17.303Z,-0.60
2022-12-19T03:12:50.382Z,-0.70
2022-12-19T03:15:17.581Z,-0.70
2022-12-19T03:17:51.465Z,-0.70
2022-12-19T03:20:48.225Z,-0.70
2022-12-19T03:23:15.991Z,-0.60
2022-12-19T03:25:44.293Z,-0.60
2022-12-19T03:28:20.510Z,-0.60
2022-12-19T03:30:54.837Z,-0.60
2022-12-19T03:33:22.587Z,-0.60
2022-12-19T03:35:50.717Z,-0.70
2022-12-19T03:38:18.977Z,-0.60
2022-12-19T03:40:46.437Z,-0.60
2022-12-19T03:43:16.003Z,-0.60
2022-12-19T03:45:45.547Z,-0.70
2022-12-19T03:48:24.485Z,-0.70
2022-12-19T03:50:54.879Z,-0.80
2022-12-19T03:53:45.143Z,-0.80
2022-12-19T03:56:18.706Z,-0.80
2022-12-19T03:58:48.249Z,-0.80
2022-12-19T04:01:15.655Z,-0.80
2022-12-19T04:03:42.866Z,-0.90
2022-12-19T04:06:12.535Z,-0.90
2022-12-19T04:08:39.750Z,-0.90
2022-12-19T04:11:17.404Z,-1.00
2022-12-19T04:13:57.775Z,-1.00
2022-12-19T04:16:35.527Z,-1.00
2022-12-19T04:19:09.993Z,-1.10
2022-12-19T04:21:41.707Z,-1.00
2022-12-19T04:24:11.804Z,-1.10
2022-12-19T04:26:39.555Z,-1.10
2022-12-19T04:29:08.070Z,-1.20
2022-12-19T04:31:36.308Z,-1.30
2022-12-19T04:34:03.401Z,-1.30
2022-12-19T04:36:30.531Z,-1.30
2022-12-19T04:38:57.766Z,-1.30
2022-12-19T04:41:24.779Z,-1.30
2022-12-19T04:43:51.887Z,-1.30
2022-12-19T04:46:19.187Z,-1.40
2022-12-19T04:48:59.506Z,-1.40
2022-12-19T04:51:33.433Z,-1.50
2022-12-19T04:54:00.467Z,-1.40
2022-12-19T04:56:28.070Z,-1.40
2022-12-19T04:58:59.133Z,-1.40
2022-12-19T05:01:26.534Z,-1.40
2022-12-19T05:03:56.543Z,-1.40
2022-12-19T05:06:25.775Z,-1.50
2022-12-19T05:08:53.046Z,-1.50
2022-12-19T05:11:33.507Z,-1.60
2022-12-19T05:14:13.774Z,-1.70
2022-12-19T05:17:01.425Z,-1.80
2022-12-19T05:19:35.409Z,-1.80
2022-12-19T05:22:02.735Z,-1.80
2022-12-19T05:24:30.771Z,-1.80
2022-12-19T05:26:58.445Z,-1.80
2022-12-19T05:29:25.516Z,-1.90
2022-12-19T05:31:53.115Z,-1.90
2022-12-19T05:34:20.082Z,-2.00
2022-12-19T05:36:47.157Z,-2.00
2022-12-19T05:39:14.234Z,-2.00
2022-12-19T05:41:41.557Z,-2.10
2022-12-19T05:44:09.389Z,-2.20
2022-12-19T05:46:36.635Z,-2.10
2022-12-19T05:49:03.725Z,-2.20
2022-12-19T05:51:31.586Z,-2.20
2022-12-19T05:54:00.684Z,-2.30
2022-12-19T05:56:28.070Z,-2.30
2022-12-19T05:58:57.626Z,-2.40
2022-12-19T06:01:26.499Z,-2.40
2022-12-19T06:03:54.385Z,-2.50
2022-12-19T06:06:22.805Z,-2.60
2022-12-19T06:08:54.153Z,-2.60
2022-12-19T06:11:21.204Z,-2.60
2022-12-19T06:13:51.874Z,-2.70
2022-12-19T06:16:20.311Z,-2.80
2022-12-19T06:18:47.670Z,-2.80
2022-12-19T06:21:19.356Z,-2.80
2022-12-19T06:23:47.070Z,-2.80
2022-12-19T06:26:19.181Z,-2.80
2022-12-19T06:28:47.969Z,-2.80
2022-12-19T06:31:15.310Z,-2.80
2022-12-19T06:33:42.423Z,-2.90
2022-12-19T06:36:14.866Z,-2.80
2022-12-19T06:38:42.320Z,-2.90
2022-12-19T06:41:28.597Z,-2.90
2022-12-19T06:44:02.904Z,-2.80
2022-12-19T06:46:30.653Z,-2.90
2022-12-19T06:48:58.083Z,-3.00
2022-12-19T06:51:25.314Z,-2.90
2022-12-19T06:53:52.740Z,-2.90
2022-12-19T06:56:20.642Z,-3.00
2022-12-19T06:58:49.443Z,-3.00
2022-12-19T07:01:20.173Z,-3.00
2022-12-19T07:03:48.147Z,-3.00
2022-12-19T07:06:15.254Z,-3.00
2022-12-19T07:08:42.507Z,-2.90
2022-12-19T07:11:22.650Z,-2.90
2022-12-19T07:13:56.429Z,-2.90
2022-12-19T07:16:24.121Z,-2.90
2022-12-19T07:18:51.225Z,-2.90
2022-12-19T07:21:18.384Z,-2.90
2022-12-19T07:23:45.474Z,-2.90
2022-12-19T07:26:12.778Z,-2.90
2022-12-19T07:28:40.327Z,-2.90
2022-12-19T07:31:08.498Z,-2.80
2022-12-19T07:33:35.466Z,-2.80
2022-12-19T07:36:02.706Z,-2.80
2022-12-19T07:38:29.708Z,-2.80
2022-12-19T07:40:56.715Z,-2.80
2022-12-19T07:43:31.086Z,-2.80
2022-12-19T07:46:04.538Z,-2.80
2022-12-19T07:48:31.784Z,-2.80
2022-12-19T07:50:58.815Z,-2.70
2022-12-19T07:53:25.889Z,-2.70
2022-12-19T07:55:53.138Z,-2.60
2022-12-19T07:58:20.245Z,-2.60
2022-12-19T08:00:53.693Z,-2.60
2022-12-19T08:03:21.092Z,-2.60
2022-12-19T08:05:48.130Z,-2.50
2022-12-19T08:08:15.162Z,-2.40
2022-12-19T08:10:42.384Z,-2.40
2022-12-19T08:13:09.529Z,-2.30
2022-12-19T08:15:36.630Z,-2.30
2022-12-19T08:18:03.940Z,-2.40
2022-12-19T08:20:30.927Z,-2.40
2022-12-19T08:22:58.316Z,-2.40
2022-12-19T08:25:25.426Z,-2.40
2022-12-19T08:27:52.454Z,-2.50
2022-12-19T08:30:19.537Z,-2.40
2022-12-19T08:32:46.926Z,-2.40
2022-12-19T08:35:14.020Z,-2.40
2022-12-19T08:37:41.130Z,-2.50
2022-12-19T08:40:08.819Z,-2.50
2022-12-19T08:42:48.742Z,-2.60
2022-12-19T08:45:28.787Z,-2.60
2022-12-19T08:48:15.798Z,-2.80
2022-12-19T08:50:59.767Z,-2.80
2022-12-19T08:53:34.935Z,-2.70
2022-12-19T08:56:04.328Z,-2.80
2022-12-19T08:58:36.641Z,-2.80
2022-12-19T09:01:06.009Z,-3.00
2022-12-19T09:03:56.201Z,-3.10
2022-12-19T09:06:27.166Z,-3.20
2022-12-19T09:09:13.749Z,-3.20
2022-12-19T09:11:47.610Z,-3.30
2022-12-19T09:14:34.733Z,-3.40
2022-12-19T09:17:15.022Z,-3.40
2022-12-19T09:20:01.735Z,-3.40
2022-12-19T09:22:41.843Z,-3.50
2022-12-19T09:25:28.759Z,-3.60
2022-12-19T09:31:18.861Z,-3.90
2022-12-19T09:33:53.032Z,-4.10
2022-12-19T09:36:23.181Z,-4.20
2022-12-19T09:38:50.888Z,-4.20
2022-12-19T09:41:44.802Z,-4.20
2022-12-19T09:44:15.576Z,-4.10
2022-12-19T09:46:42.667Z,-4.20
2022-12-19T09:49:18.897Z,-4.50
2022-12-19T09:52:00.914Z,-4.60
2022-12-19T09:54:35.569Z,-4.70
2022-12-19T09:57:11.905Z,-4.60
2022-12-19T10:00:05.390Z,-4.70
2022-12-19T10:02:33.420Z,-4.70
2022-12-19T10:05:37.970Z,-4.90
2022-12-19T10:08:10.427Z,-5.10
2022-12-19T10:12:39.118Z,-5.20
2022-12-19T10:13:35.153Z,-5.10
2022-12-19T10:16:21.561Z,-5.20
2022-12-19T10:19:02.558Z,-5.20
2022-12-19T10:21:59.516Z,-5.30
2022-12-19T10:24:24.001Z,-5.20
2022-12-19T10:26:59.936Z,-5.20
2022-12-19T10:29:45.119Z,-5.40
2022-12-19T10:32:37.060Z,-5.40
2022-12-19T10:35:21.846Z,-5.30
2022-12-19T10:38:05.050Z,-5.30
2022-12-19T10:41:14.835Z,-5.20
2022-12-19T10:43:52.230Z,-5.30
2022-12-19T10:46:31.513Z,-5.40
2022-12-19T10:48:58.761Z,-5.40
2022-12-19T10:51:28.192Z,-5.30
2022-12-19T10:53:57.268Z,-5.40
2022-12-19T10:56:30.356Z,-5.30
2022-12-19T10:59:03.973Z,-5.20
2022-12-19T11:01:39.598Z,-5.30
2022-12-19T11:04:13.045Z,-5.30
2022-12-19T11:06:53.645Z,-5.40
2022-12-19T11:09:29.974Z,-5.20
2022-12-19T11:14:37.021Z,-5.20
2022-12-19T11:19:51.519Z,-5.30
2022-12-19T11:26:44.047Z,-5.40
2022-12-19T11:29:33.972Z,-5.30
2022-12-19T11:30:36.951Z,-5.40
2022-12-19T11:30:41.367Z,-5.40
2022-12-19T11:32:43.569Z,-5.40
2022-12-19T11:35:36.720Z,-5.50
2022-12-19T11:38:06.250Z,-5.50
2022-12-19T11:40:36.295Z,-5.40
2022-12-19T11:43:42.683Z,-5.40
2022-12-19T11:46:02.732Z,-5.60
2022-12-19T11:48:32.816Z,-5.70
2022-12-19T11:50:59.920Z,-5.60
2022-12-19T11:53:30.570Z,-5.50
2022-12-19T11:56:02.483Z,-5.60
2022-12-19T11:58:30.235Z,-5.60
2022-12-19T12:00:57.183Z,-5.50
2022-12-19T12:04:02.569Z,-5.40
2022-12-19T12:06:33.767Z,-5.40
2022-12-19T12:11:02.857Z,-5.50
2022-12-19T12:14:49.792Z,-5.50
2022-12-19T12:21:01.068Z,-5.50
2022-12-19T12:31:07.691Z,-5.30
2022-12-19T12:31:08.619Z,-5.30
2022-12-19T12:31:09.192Z,-5.30
2022-12-19T12:31:43.660Z,-5.30
2022-12-19T12:32:03.750Z,-5.20
2022-12-19T12:35:35.104Z,-5.20
2022-12-19T12:38:53.734Z,-5.10
2022-12-19T12:41:48.836Z,-5.20
2022-12-19T12:44:15.925Z,-5.20
2022-12-19T12:46:48.029Z,-5.30
2022-12-19T12:49:31.845Z,-5.20
2022-12-19T12:52:00.392Z,-5.20
2022-12-19T12:54:32.393Z,-5.10
2022-12-19T12:56:59.380Z,-5.20
2022-12-19T12:59:27.537Z,-5.20
2022-12-19T13:02:06.660Z,-5.30
2022-12-19T13:05:00.992Z,-5.40
2022-12-19T13:07:50.013Z,-5.20
2022-12-19T13:10:37.915Z,-5.20
2022-12-19T13:13:17.405Z,-5.20
2022-12-19T13:15:59.968Z,-5.10
2022-12-19T13:18:41.119Z,-5.10
2022-12-19T13:21:17.939Z,-5.20
2022-12-19T13:23:46.017Z,-5.20
2022-12-19T13:26:52.434Z,-5.20
2022-12-19T13:29:30.483Z,-5.20
2022-12-19T13:32:11.353Z,-5.30
2022-12-19T13:34:38.553Z,-5.50
2022-12-19T13:40:01.196Z,-5.60
2022-12-19T13:40:12.903Z,-5.60
2022-12-19T13:43:11.452Z,-5.70
2022-12-19T13:45:47.150Z,-5.70
2022-12-19T13:48:30.822Z,-5.70
2022-12-19T13:50:59.051Z,-5.80
2022-12-19T13:53:26.861Z,-5.80
2022-12-19T13:55:55.212Z,-5.90
2022-12-19T13:58:29.276Z,-5.90
2022-12-19T14:03:33.610Z,-6.10
2022-12-19T14:06:17.157Z,-6.10
2022-12-19T14:08:46.759Z,-6.20
2022-12-19T14:11:40.624Z,-6.20
2022-12-19T14:14:27.707Z,-6.20
2022-12-19T14:16:56.352Z,-6.30
2022-12-19T14:19:43.936Z,-6.40
2022-12-19T14:22:24.697Z,-6.40
2022-12-19T14:25:33.258Z,-6.50
2022-12-19T14:28:25.619Z,-6.60
2022-12-19T14:30:53.947Z,-6.70
2022-12-19T14:33:43.988Z,-6.70
2022-12-19T14:36:26.563Z,-6.80
2022-12-19T14:39:24.087Z,-6.80
2022-12-19T14:42:02.824Z,-6.90
2022-12-19T14:53:51.900Z,-6.90
2022-12-19T14:54:14.925Z,-6.90
2022-12-19T14:54:24.146Z,-7.00
2022-12-19T14:54:26.787Z,-7.00
2022-12-19T14:59:02.308Z,-7.10
2022-12-19T15:01:34.251Z,-7.20
2022-12-19T15:04:52.467Z,-7.30
2022-12-19T15:07:09.518Z,-7.30
2022-12-19T15:11:02.802Z,-7.30
2022-12-19T15:14:55.374Z,-7.40
2022-12-19T15:15:56.437Z,-7.40
2022-12-19T15:18:32.602Z,-7.50
2022-12-19T15:21:02.422Z,-7.50
2022-12-19T15:23:29.988Z,-7.50
2022-12-19T15:26:04.922Z,-7.50
2022-12-19T15:28:41.921Z,-7.50
2022-12-19T15:31:24.503Z,-7.50
2022-12-19T15:37:02.966Z,-7.50
2022-12-19T15:39:37.527Z,-7.50
2022-12-19T15:42:04.975Z,-7.50
2022-12-19T15:44:40.106Z,-7.50
2022-12-19T15:47:15.969Z,-7.50
2022-12-19T15:49:43.148Z,-7.50
2022-12-19T15:52:17.513Z,-7.50
2022-12-19T15:54:50.306Z,-7.50
2022-12-19T15:57:17.969Z,-7.50
2022-12-19T15:59:45.122Z,-7.50
2022-12-19T16:02:17.704Z,-7.60
2022-12-19T16:04:46.317Z,-7.60
2022-12-19T16:07:31.731Z,-7.60
2022-12-19T16:09:58.776Z,-7.50
2022-12-19T16:12:30.599Z,-7.60
2022-12-19T16:14:58.763Z,-7.60
2022-12-19T16:17:26.888Z,-7.60
2022-12-19T16:19:54.145Z,-7.60
2022-12-19T16:22:25.528Z,-7.60
2022-12-19T16:24:52.946Z,-7.50
2022-12-19T16:27:24.192Z,-7.50
2022-12-19T16:29:51.569Z,-7.50
2022-12-19T16:32:20.459Z,-7.50
2022-12-19T16:34:54.663Z,-7.50
2022-12-19T16:37:32.244Z,-7.40
2022-12-19T16:39:59.775Z,-7.40
2022-12-19T16:42:28.405Z,-7.30
2022-12-19T16:44:55.370Z,-7.30
2022-12-19T16:47:22.445Z,-7.30
2022-12-19T16:49:49.572Z,-7.30
2022-12-19T16:52:16.541Z,-7.20
2022-12-19T16:54:43.803Z,-7.30
2022-12-19T16:57:19.051Z,-7.30
2022-12-19T16:59:46.464Z,-7.20
2022-12-19T17:02:38.069Z,-7.20
2022-12-19T17:05:14.812Z,-7.20
2022-12-19T17:07:41.858Z,-7.20
2022-12-19T17:10:09.101Z,-7.20
2022-12-19T17:12:37.813Z,-7.20
2022-12-19T17:15:07.929Z,-7.20
2022-12-19T17:17:35.174Z,-7.20
2022-12-19T17:20:02.593Z,-7.10
2022-12-19T17:22:29.949Z,-7.10
2022-12-19T17:24:57.390Z,-7.10
2022-12-19T17:27:24.363Z,-7.10
2022-12-19T17:29:51.301Z,-7.10
2022-12-19T17:32:24.337Z,-7.00
2022-12-19T17:34:52.404Z,-6.90
2022-12-19T17:37:19.462Z,-6.90
2022-12-19T17:39:46.370Z,-6.80
2022-12-19T17:42:18.627Z,-6.80
2022-12-19T17:44:45.744Z,-6.80
2022-12-19T17:47:16.432Z,-6.70
2022-12-19T17:49:43.680Z,-6.70
2022-12-19T17:52:13.025Z,-6.70
2022-12-19T17:54:39.972Z,-6.70
2022-12-19T17:57:10.154Z,-6.70
2022-12-19T17:59:37.376Z,-6.70
2022-12-19T18:02:04.557Z,-6.70
2022-12-19T18:04:31.882Z,-6.70
2022-12-19T18:06:58.849Z,-6.60
2022-12-19T18:09:25.746Z,-6.60
2022-12-19T18:11:52.992Z,-6.70
2022-12-19T18:14:19.930Z,-6.70
2022-12-19T18:16:48.301Z,-6.70
2022-12-19T18:19:19.956Z,-6.70
2022-12-19T18:21:47.444Z,-6.70
2022-12-19T18:24:17.212Z,-6.70
2022-12-19T18:26:46.562Z,-6.60
2022-12-19T18:29:13.864Z,-6.70
2022-12-19T18:31:46.492Z,-6.60
2022-12-19T18:34:22.129Z,-6.70
2022-12-19T18:36:49.245Z,-6.60
2022-12-19T18:39:19.253Z,-6.60
2022-12-19T18:41:46.447Z,-6.60
2022-12-19T18:44:13.430Z,-6.60
2022-12-19T18:46:40.573Z,-6.60
2022-12-19T18:49:07.582Z,-6.60
2022-12-19T18:51:34.541Z,-6.60
2022-12-19T18:54:02.592Z,-6.50
2022-12-19T18:56:29.571Z,-6.60
2022-12-19T18:58:56.491Z,-6.50
2022-12-19T19:01:23.555Z,-6.50
2022-12-19T19:03:54.909Z,-6.60
2022-12-19T19:06:26.164Z,-6.60
2022-12-19T19:08:53.701Z,-6.50
2022-12-19T19:11:43.744Z,-6.50
2022-12-19T19:14:11.675Z,-6.50
2022-12-19T19:16:40.038Z,-6.50
2022-12-19T19:19:08.729Z,-6.50
2022-12-19T19:21:36.122Z,-6.50
2022-12-19T19:24:09.144Z,-6.40
2022-12-19T19:26:37.366Z,-6.40
2022-12-19T19:29:05.383Z,-6.40
2022-12-19T19:31:34.781Z,-6.50
2022-12-19T19:34:21.745Z,-6.50
2022-12-19T19:36:53.805Z,-6.50
2022-12-19T19:39:34.347Z,-6.40
2022-12-19T19:42:08.049Z,-6.50
2022-12-19T19:44:35.039Z,-6.50
2022-12-19T19:47:02.560Z,-6.50
2022-12-19T19:49:29.592Z,-6.50
2022-12-19T19:52:05.632Z,-6.50
2022-12-19T19:54:34.831Z,-6.50
2022-12-19T19:57:02.521Z,-6.40
2022-12-19T19:59:30.999Z,-6.40
2022-12-19T20:02:11.638Z,-6.40
2022-12-19T20:04:45.755Z,-6.40
2022-12-19T20:07:12.804Z,-6.40
2022-12-19T20:09:39.717Z,-6.30
2022-12-19T20:12:07.105Z,-6.30
2022-12-19T20:14:34.105Z,-6.30
2022-12-19T20:17:01.141Z,-6.30
2022-12-19T20:19:28.356Z,-6.30
2022-12-19T20:21:55.354Z,-6.30
2022-12-19T20:24:22.344Z,-6.40
2022-12-19T20:26:49.867Z,-6.30
2022-12-19T20:29:17.060Z,-6.30
2022-12-19T20:31:44.773Z,-6.30
2022-12-19T20:34:11.981Z,-6.30
2022-12-19T20:36:38.923Z,-6.30
2022-12-19T20:39:06.381Z,-6.30
2022-12-19T20:41:33.838Z,-6.30
2022-12-19T20:44:01.230Z,-6.30
2022-12-19T20:46:48.349Z,-6.30
2022-12-19T20:49:31.327Z,-6.40
2022-12-19T20:51:58.431Z,-6.40
2022-12-19T20:54:25.546Z,-6.40
2022-12-19T20:56:52.861Z,-6.40
2022-12-19T20:59:19.862Z,-6.40
2022-12-19T21:01:46.966Z,-6.40
2022-12-19T21:04:14.289Z,-6.50
2022-12-19T21:06:42.463Z,-6.50
2022-12-19T21:09:10.947Z,-6.50
2022-12-19T21:11:38.888Z,-6.50
2022-12-19T21:14:07.266Z,-6.50
2022-12-19T21:16:36.825Z,-6.50
2022-12-19T21:19:04.328Z,-6.50
2022-12-19T21:21:31.548Z,-6.50
2022-12-19T21:24:00.164Z,-6.60
2022-12-19T21:26:27.334Z,-6.60
2022-12-19T21:28:54.940Z,-6.70
2022-12-19T21:31:23.762Z,-6.70
2022-12-19T21:33:53.408Z,-6.80
2022-12-19T21:36:22.312Z,-6.70
2022-12-19T21:38:49.945Z,-6.80
2022-12-19T21:41:21.500Z,-6.80
2022-12-19T21:43:49.435Z,-6.80
2022-12-19T21:46:19.147Z,-6.80
2022-12-19T21:48:47.285Z,-6.90
2022-12-19T21:51:14.879Z,-6.90
2022-12-19T21:53:48.597Z,-6.90
2022-12-19T21:56:38.438Z,-6.90
2022-12-19T21:59:13.373Z,-6.90
2022-12-19T22:01:41.683Z,-6.90
2022-12-19T22:04:16.245Z,-6.90
2022-12-19T22:06:43.347Z,-6.90
2022-12-19T22:09:22.829Z,-6.90
2022-12-19T22:11:49.928Z,-6.90
2022-12-19T22:14:17.427Z,-6.90
2022-12-19T22:16:44.735Z,-6.90
2022-12-19T22:19:16.004Z,-6.90
2022-12-19T22:21:43.277Z,-7.00
2022-12-19T22:24:12.019Z,-7.00
2022-12-19T22:26:39.168Z,-7.00
2022-12-19T22:29:07.529Z,-7.00
2022-12-19T22:31:34.929Z,-7.00
2022-12-19T22:34:17.436Z,-6.90
2022-12-19T22:36:51.136Z,-7.00
2022-12-19T22:39:19.560Z,-6.90
2022-12-19T22:41:47.458Z,-7.00
2022-12-19T22:44:19.275Z,-7.00
2022-12-19T22:46:46.242Z,-7.00
2022-12-19T22:49:14.005Z,-6.90
2022-12-19T22:51:40.981Z,-6.90
2022-12-19T22:54:08.272Z,-6.90
2022-12-19T22:56:36.069Z,-6.90
2022-12-19T22:59:06.926Z,-6.90
2022-12-19T23:01:35.461Z,-6.90
2022-12-19T23:04:03.404Z,-6.90
2022-12-19T23:06:31.680Z,-6.90
2022-12-19T23:08:58.759Z,-6.90
2022-12-19T23:11:27.410Z,-6.90
2022-12-19T23:13:54.462Z,-6.80
2022-12-19T23:16:21.507Z,-6.80
2022-12-19T23:18:48.500Z,-6.80
2022-12-19T23:21:18.031Z,-6.90
2022-12-19T23:23:46.703Z,-6.80
2022-12-19T23:26:16.230Z,-6.80
2022-12-19T23:28:57.592Z,-6.80
2022-12-19T23:31:31.600Z,-6.80
2022-12-19T23:33:59.266Z,-6.70
2022-12-19T23:39:14.211Z,-6.60
2022-12-19T23:41:41.101Z,-6.60
2022-12-19T23:44:08.690Z,-6.60
2022-12-19T23:46:36.023Z,-6.60
2022-12-19T23:49:03.206Z,-6.60
2022-12-19T23:51:30.473Z,-6.60
2022-12-19T23:53:57.611Z,-6.60
2022-12-19T23:56:26.149Z,-6.60
2022-12-19T23:58:53.727Z,-6.60
